createdAt,value
2022-11-18T00:04:03.299Z,25.9
2022-11-18T00:09:25.547Z,25.6
2022-11-18T00:15:02.879Z,25.3
2022-11-18T00:20:42.044Z,27.1
2022-11-18T00:26:22.971Z,27.1
2022-11-18T00:31:59.802Z,26.8
2022-11-18T00:37:36.613Z,26.4
2022-11-18T00:42:59.212Z,26
2022-11-18T00:48:37.132Z,25.8
2022-11-18T00:53:59.455Z,25.4
2022-11-18T00:59:37.391Z,26
2022-11-18T01:05:00.479Z,28.4
2022-11-18T01:10:22.854Z,26.8
2022-11-18T01:15:45.377Z,26.3
2022-11-18T01:21:07.498Z,26
2022-11-18T01:26:29.771Z,25.8
2022-11-18T01:32:44.277Z,25.6
2022-11-18T01:38:05.877Z,25.3
2022-11-18T01:43:43.342Z,27.4
2022-11-18T01:49:06.245Z,26.8
2022-11-18T01:54:33.463Z,26.3
2022-11-18T01:59:39.543Z,26
2022-11-18T02:05:19.447Z,25.8
2022-11-18T02:10:57.996Z,25.7
2022-11-18T02:16:36.292Z,25.5
2022-11-18T02:22:13.620Z,25.4
2022-11-18T02:27:50.950Z,28
2022-11-18T02:32:57.812Z,26.4
2022-11-18T02:38:19.354Z,25.9
2022-11-18T02:43:57.090Z,25.8
2022-11-18T02:49:35.174Z,25.8
2022-11-18T02:55:12.403Z,25.6
2022-11-18T03:00:50.545Z,25.1
2022-11-18T03:06:27.930Z,26.8
2022-11-18T03:11:50.625Z,27
2022-11-18T03:16:57.202Z,26
2022-11-18T03:22:19.163Z,25.8
2022-11-18T03:27:41.445Z,25.7
2022-11-18T03:32:48.328Z,25.6
2022-11-18T03:38:35.348Z,25.4
2022-11-18T03:44:13.095Z,25.7
2022-11-18T03:49:56.698Z,28.1
2022-11-18T03:55:19.339Z,26.2
2022-11-18T04:01:01.978Z,25.8
2022-11-18T04:06:39.630Z,25.6
2022-11-18T04:12:17.166Z,25.6
2022-11-18T04:17:55.233Z,25.4
2022-11-18T04:23:33.665Z,25.5
2022-11-18T04:28:56.153Z,27.9
2022-11-18T04:34:33.133Z,26.1
2022-11-18T04:40:02.787Z,25.7
2022-11-18T04:45:40.531Z,25.6
2022-11-18T04:51:23.348Z,25.6
2022-11-18T04:57:05.960Z,25.4
2022-11-18T05:02:44.075Z,25.7
2022-11-18T05:08:06.508Z,28.1
2022-11-18T05:13:29.418Z,26.1
2022-11-18T05:18:52.986Z,25.7
2022-11-18T05:24:18.775Z,25.6
2022-11-18T05:29:41.302Z,25.6
2022-11-18T05:35:19.373Z,25.4
2022-11-18T05:40:44.736Z,25.1
2022-11-18T05:46:23.946Z,24.6
2022-11-18T05:52:02.933Z,24.2
2022-11-18T05:57:40.922Z,23.9
2022-11-18T06:03:19.516Z,25.7
2022-11-18T06:08:58.465Z,25.8
2022-11-18T06:14:36.752Z,25.2
2022-11-18T06:20:17.689Z,25.3
2022-11-18T06:25:55.947Z,25.1
2022-11-18T06:31:39.951Z,24.9
2022-11-18T06:37:17.627Z,24.5
2022-11-18T06:43:02.432Z,24.1
2022-11-18T06:48:26.229Z,23.8
2022-11-18T06:53:48.898Z,25.3
2022-11-18T06:59:32.426Z,26.2
2022-11-18T07:05:10.331Z,25.1
2022-11-18T07:10:47.885Z,25.1
2022-11-18T07:16:30.603Z,25
2022-11-18T07:22:07.709Z,24.8
2022-11-18T07:27:45.801Z,24.4
2022-11-18T07:33:24.348Z,24.1
2022-11-18T07:39:06.427Z,23.6
2022-11-18T07:44:50.605Z,24.9
2022-11-18T07:50:28.930Z,26.5
2022-11-18T07:56:08.519Z,24.9
2022-11-18T08:01:47.521Z,25
2022-11-18T08:07:31.962Z,24.9
2022-11-18T08:13:13.573Z,24.7
2022-11-18T08:18:51.281Z,24.4
2022-11-18T08:24:33.597Z,24
2022-11-18T08:30:15.637Z,23.8
2022-11-18T08:35:58.047Z,25.4
2022-11-18T08:41:20.806Z,25.7
2022-11-18T08:46:45.610Z,24.9
2022-11-18T08:52:24.063Z,24.9
2022-11-18T08:58:01.996Z,24.9
2022-11-18T09:03:39.090Z,24.7
2022-11-18T09:09:23.018Z,24.4
2022-11-18T09:16:31.052Z,24
2022-11-18T09:22:35.808Z,23.7
2022-11-18T09:28:20.754Z,26.4
2022-11-18T09:33:58.552Z,25.1
2022-11-18T09:39:42.199Z,24.8
2022-11-18T09:45:25.462Z,24.8
2022-11-18T09:51:37.840Z,24.8
2022-11-18T09:57:23.410Z,24.5
2022-11-18T10:03:01.404Z,24.2
2022-11-18T10:08:39.785Z,23.8
2022-11-18T10:14:22.529Z,23.4
2022-11-18T10:20:25.915Z,23.1
2022-11-18T10:26:14.044Z,22.8
2022-11-18T10:31:36.517Z,22.4
2022-11-18T10:36:58.888Z,22.6
2022-11-18T10:43:06.267Z,25.6
2022-11-18T10:48:29.282Z,24.7
2022-11-18T10:54:14.366Z,24.6
2022-11-18T10:59:57.824Z,24.6
2022-11-18T11:05:38.181Z,24.4
2022-11-18T11:11:26.949Z,24.2
2022-11-18T11:17:05.360Z,23.9
2022-11-18T11:22:44.262Z,23.6
2022-11-18T11:30:14.718Z,23.2
2022-11-18T11:35:52.608Z,22.8
2022-11-18T11:41:35.707Z,22.5
2022-11-18T11:46:58.005Z,22.3
2022-11-18T11:52:44.309Z,24.6
2022-11-18T11:58:07.056Z,25
2022-11-18T12:03:50.419Z,24.4
2022-11-18T12:09:30.683Z,24.5
2022-11-18T12:15:13.865Z,24.5
2022-11-18T12:20:52.184Z,24.3
2022-11-18T12:26:30.691Z,24
2022-11-18T12:32:08.987Z,23.7
2022-11-18T12:37:46.571Z,23.4
2022-11-18T12:43:24.776Z,23.1
2022-11-18T12:49:02.906Z,22.8
2022-11-18T12:54:30.011Z,22.4
2022-11-18T12:59:52.595Z,22.7
2022-11-18T13:05:36.469Z,25.6
2022-11-18T13:11:15.552Z,24.6
2022-11-18T13:16:55.050Z,24.3
2022-11-18T13:22:32.330Z,24.4
2022-11-18T13:27:39.614Z,24.3
2022-11-18T13:33:17.056Z,24.1
2022-11-18T13:39:01.375Z,23.8
2022-11-18T13:44:28.143Z,23.5
2022-11-18T13:50:07.723Z,23.2
2022-11-18T13:55:45.540Z,22.9
2022-11-18T14:01:24.679Z,22.6
2022-11-18T14:06:31.570Z,22.6
2022-11-18T14:12:10.314Z,25.1
2022-11-18T14:17:49.419Z,24.6
2022-11-18T14:23:29.034Z,24.3
2022-11-18T14:29:07.491Z,24.4
2022-11-18T14:34:30.154Z,24.3
2022-11-18T14:41:07.771Z,24.1
2022-11-18T14:46:19.093Z,23.8
2022-11-18T14:51:57.518Z,23.5
2022-11-18T14:57:44.155Z,23.2
2022-11-18T15:03:28.570Z,22.9
2022-11-18T15:08:36.431Z,22.6
2022-11-18T15:13:58.863Z,22.4
2022-11-18T15:19:21.918Z,23
2022-11-18T15:24:59.592Z,26.1
2022-11-18T15:30:38.046Z,24.3
2022-11-18T15:36:21.113Z,24.3
2022-11-18T15:41:28.292Z,24.3
2022-11-18T15:47:18.844Z,24.2
2022-11-18T15:52:59.091Z,23.9
2022-11-18T15:58:29.236Z,23.7
2022-11-18T16:03:54.995Z,23.4
2022-11-18T16:09:19.869Z,23.1
2022-11-18T16:14:42.346Z,22.8
2022-11-18T16:20:22.167Z,22.6
2022-11-18T16:26:00.300Z,22.3
2022-11-18T16:31:45.369Z,22.1
2022-11-18T16:37:30.635Z,23.2
2022-11-18T16:43:15.059Z,26.6
2022-11-18T16:48:58.819Z,24.1
2022-11-18T16:54:21.902Z,24.2
2022-11-18T16:59:51.989Z,24.2
2022-11-18T17:06:11.210Z,24.1
2022-11-18T17:11:34.504Z,23.8
2022-11-18T17:17:01.210Z,23.6
2022-11-18T17:22:28.445Z,23.3
2022-11-18T17:27:53.690Z,23
2022-11-18T17:33:21.285Z,22.7
2022-11-18T17:38:48.030Z,22.4
2022-11-18T17:44:11.018Z,22.2
2022-11-18T17:49:41.114Z,22.5
2022-11-18T17:55:24.790Z,25.6
2022-11-18T18:01:08.435Z,24.3
2022-11-18T18:06:49.114Z,24.1
2022-11-18T18:12:02.613Z,24.2
2022-11-18T18:17:47.195Z,24.1
2022-11-18T18:23:26.912Z,23.9
2022-11-18T18:29:06.005Z,23.6
2022-11-18T18:34:50.759Z,23.4
2022-11-18T18:39:57.742Z,23.1
2022-11-18T18:45:09.498Z,22.8
2022-11-18T18:50:48.685Z,22.6
2022-11-18T18:56:33.903Z,22.6
2022-11-18T19:02:05.751Z,25.3
2022-11-18T19:08:57.090Z,24.4
2022-11-18T19:14:21.895Z,24.2
2022-11-18T19:19:30.779Z,24.2
2022-11-18T19:25:39.327Z,24.1
2022-11-18T19:31:23.421Z,23.9
2022-11-18T19:36:48.626Z,23.6
2022-11-18T19:42:28.727Z,23.4
2022-11-18T19:48:13.247Z,23.1
2022-11-18T19:53:57.050Z,22.8
2022-11-18T19:59:39.540Z,22.6
2022-11-18T20:05:19.806Z,22.3
2022-11-18T20:11:02.168Z,24.1
2022-11-18T20:16:44.862Z,25.2
2022-11-18T20:22:39.018Z,24
2022-11-18T20:28:03.132Z,24.2
2022-11-18T20:33:48.087Z,24.1
2022-11-18T20:39:12.311Z,23.9
2022-11-18T20:44:52.148Z,23.7
2022-11-18T20:50:02.070Z,23.4
2022-11-18T20:55:26.797Z,23.1
2022-11-18T21:00:19.030Z,22.9
2022-11-18T21:05:58.527Z,22.7
2022-11-18T21:11:37.847Z,22.4
2022-11-18T21:17:18.190Z,22.1
2022-11-18T21:22:58.156Z,22.6
2022-11-18T21:28:43.464Z,25.9
2022-11-18T21:34:26.230Z,24.2
2022-11-18T21:40:10.089Z,24.1
2022-11-18T21:46:19.800Z,24.2
2022-11-18T21:52:04.454Z,24.1
2022-11-18T21:57:27.341Z,23.9
2022-11-18T22:02:54.042Z,23.6
2022-11-18T22:08:31.997Z,23.3
2022-11-18T22:13:54.276Z,23.1
2022-11-18T22:19:38.288Z,22.8
2022-11-18T22:25:16.387Z,22.5
2022-11-18T22:30:56.926Z,22.2
2022-11-18T22:36:35.378Z,22.9
2022-11-18T22:42:13.429Z,26.1
2022-11-18T22:47:56.862Z,24.1
2022-11-18T23:01:23.487Z,24.2
2022-11-18T23:08:27.558Z,23.9
2022-11-18T23:14:12.632Z,23.6
2022-11-18T23:19:37.961Z,23.3
2022-11-18T23:25:02.476Z,23.1
2022-11-18T23:30:42.678Z,22.8
2022-11-18T23:36:22.308Z,22.5
2022-11-18T23:41:46.600Z,22.3
2022-11-18T23:47:09.382Z,22.3
2022-11-18T23:52:53.523Z,24.7
2022-11-18T23:58:35.507Z,24.6
